sensor_id;sensor_type;location;lat;lon;timestamp;temperature;humidity
44215;DHT22;29884;47.450;19.124;2022-11-09T00:01:16;9.20;99.90
44215;DHT22;29884;47.450;19.124;2022-11-09T00:03:42;9.20;99.90
44215;DHT22;29884;47.450;19.124;2022-11-09T00:06:08;9.20;99.90
44215;DHT22;29884;47.450;19.124;2022-11-09T00:08:36;9.20;99.90
44215;DHT22;29884;47.450;19.124;2022-11-09T00:11:04;9.20;99.90
44215;DHT22;29884;47.450;19.124;2022-11-09T00:13:30;9.10;99.90
44215;DHT22;29884;47.450;19.124;2022-11-09T00:15:59;9.10;99.90
44215;DHT22;29884;47.450;19.124;2022-11-09T00:18:27;9.10;99.90
44215;DHT22;29884;47.450;19.124;2022-11-09T00:20:53;9.10;99.90
44215;DHT22;29884;47.450;19.124;2022-11-09T00:23:19;9.10;99.90
44215;DHT22;29884;47.450;19.124;2022-11-09T00:25:45;9.10;99.90
44215;DHT22;29884;47.450;19.124;2022-11-09T00:28:12;9.10;99.90
44215;DHT22;29884;47.450;19.124;2022-11-09T00:30:37;9.00;99.90
44215;DHT22;29884;47.450;19.124;2022-11-09T00:33:03;9.10;99.90
44215;DHT22;29884;47.450;19.124;2022-11-09T00:35:29;9.10;99.90
44215;DHT22;29884;47.450;19.124;2022-11-09T00:37:55;9.00;99.90
44215;DHT22;29884;47.450;19.124;2022-11-09T00:40:20;9.00;99.90
44215;DHT22;29884;47.450;19.124;2022-11-09T00:42:46;9.00;99.90
44215;DHT22;29884;47.450;19.124;2022-11-09T00:45:12;9.00;99.90
44215;DHT22;29884;47.450;19.124;2022-11-09T00:47:38;9.00;99.90
44215;DHT22;29884;47.450;19.124;2022-11-09T00:50:04;9.00;99.90
44215;DHT22;29884;47.450;19.124;2022-11-09T00:52:30;9.00;99.90
44215;DHT22;29884;47.450;19.124;2022-11-09T00:54:55;9.00;99.90
44215;DHT22;29884;47.450;19.124;2022-11-09T00:57:21;9.00;99.90
44215;DHT22;29884;47.450;19.124;2022-11-09T00:59:47;8.90;99.90
44215;DHT22;29884;47.450;19.124;2022-11-09T01:02:12;9.00;99.90
44215;DHT22;29884;47.450;19.124;2022-11-09T01:04:38;8.90;99.90
44215;DHT22;29884;47.450;19.124;2022-11-09T01:07:06;8.90;99.90
44215;DHT22;29884;47.450;19.124;2022-11-09T01:09:32;8.90;99.90
44215;DHT22;29884;47.450;19.124;2022-11-09T01:11:58;8.90;99.90
44215;DHT22;29884;47.450;19.124;2022-11-09T01:14:24;8.90;99.90
44215;DHT22;29884;47.450;19.124;2022-11-09T01:16:50;8.80;99.90
44215;DHT22;29884;47.450;19.124;2022-11-09T01:19:16;8.80;99.90
44215;DHT22;29884;47.450;19.124;2022-11-09T01:21:41;8.80;99.90
44215;DHT22;29884;47.450;19.124;2022-11-09T01:24:08;8.80;99.90
44215;DHT22;29884;47.450;19.124;2022-11-09T01:26:34;8.80;99.90
44215;DHT22;29884;47.450;19.124;2022-11-09T01:29:00;8.70;99.90
44215;DHT22;29884;47.450;19.124;2022-11-09T01:31:26;8.70;99.90
44215;DHT22;29884;47.450;19.124;2022-11-09T01:33:52;8.70;99.90
44215;DHT22;29884;47.450;19.124;2022-11-09T01:36:22;8.60;99.90
44215;DHT22;29884;47.450;19.124;2022-11-09T01:38:49;8.60;99.90
44215;DHT22;29884;47.450;19.124;2022-11-09T01:41:20;8.60;99.90
44215;DHT22;29884;47.450;19.124;2022-11-09T01:44:05;8.60;99.90
44215;DHT22;29884;47.450;19.124;2022-11-09T01:52:27;8.60;99.90
44215;DHT22;29884;47.450;19.124;2022-11-09T01:55:07;8.60;99.90
44215;DHT22;29884;47.450;19.124;2022-11-09T01:57:38;8.60;99.90
44215;DHT22;29884;47.450;19.124;2022-11-09T02:00:09;8.50;99.90
44215;DHT22;29884;47.450;19.124;2022-11-09T02:02:39;8.50;99.90
44215;DHT22;29884;47.450;19.124;2022-11-09T02:05:09;8.60;99.90
44215;DHT22;29884;47.450;19.124;2022-11-09T02:07:37;8.60;99.90
44215;DHT22;29884;47.450;19.124;2022-11-09T02:12:47;8.50;99.90
44215;DHT22;29884;47.450;19.124;2022-11-09T02:15:13;8.50;99.90
44215;DHT22;29884;47.450;19.124;2022-11-09T02:17:40;8.50;99.90
44215;DHT22;29884;47.450;19.124;2022-11-09T02:20:09;8.60;99.90
44215;DHT22;29884;47.450;19.124;2022-11-09T02:22:35;8.50;99.90
44215;DHT22;29884;47.450;19.124;2022-11-09T02:25:02;8.60;99.90
44215;DHT22;29884;47.450;19.124;2022-11-09T02:27:28;8.50;99.90
44215;DHT22;29884;47.450;19.124;2022-11-09T02:29:54;8.50;99.90
44215;DHT22;29884;47.450;19.124;2022-11-09T02:32:23;8.50;99.90
44215;DHT22;29884;47.450;19.124;2022-11-09T02:34:50;8.50;99.90
44215;DHT22;29884;47.450;19.124;2022-11-09T02:37:38;8.50;99.90
44215;DHT22;29884;47.450;19.124;2022-11-09T02:40:10;8.50;99.90
44215;DHT22;29884;47.450;19.124;2022-11-09T02:42:38;8.40;99.90
44215;DHT22;29884;47.450;19.124;2022-11-09T02:45:04;8.40;99.90
44215;DHT22;29884;47.450;19.124;2022-11-09T02:47:30;8.50;99.90
44215;DHT22;29884;47.450;19.124;2022-11-09T02:49:55;8.40;99.90
44215;DHT22;29884;47.450;19.124;2022-11-09T02:52:24;8.40;99.90
44215;DHT22;29884;47.450;19.124;2022-11-09T02:54:49;8.40;99.90
44215;DHT22;29884;47.450;19.124;2022-11-09T02:57:15;8.40;99.90
44215;DHT22;29884;47.450;19.124;2022-11-09T02:59:41;8.40;99.90
44215;DHT22;29884;47.450;19.124;2022-11-09T03:02:06;8.40;99.90
44215;DHT22;29884;47.450;19.124;2022-11-09T03:04:32;8.40;99.90
44215;DHT22;29884;47.450;19.124;2022-11-09T03:06:58;8.40;99.90
44215;DHT22;29884;47.450;19.124;2022-11-09T03:09:23;8.30;99.90
44215;DHT22;29884;47.450;19.124;2022-11-09T03:11:49;8.30;99.90
44215;DHT22;29884;47.450;19.124;2022-11-09T03:14:15;8.30;99.90
44215;DHT22;29884;47.450;19.124;2022-11-09T03:16:41;8.30;99.90
44215;DHT22;29884;47.450;19.124;2022-11-09T03:19:07;8.40;99.90
44215;DHT22;29884;47.450;19.124;2022-11-09T03:21:32;8.40;99.90
44215;DHT22;29884;47.450;19.124;2022-11-09T03:23:58;8.40;99.90
44215;DHT22;29884;47.450;19.124;2022-11-09T03:26:24;8.30;99.90
44215;DHT22;29884;47.450;19.124;2022-11-09T03:28:50;8.40;99.90
44215;DHT22;29884;47.450;19.124;2022-11-09T03:31:15;8.30;99.90
44215;DHT22;29884;47.450;19.124;2022-11-09T03:33:41;8.30;99.90
44215;DHT22;29884;47.450;19.124;2022-11-09T03:36:07;8.30;99.90
44215;DHT22;29884;47.450;19.124;2022-11-09T03:38:33;8.30;99.90
44215;DHT22;29884;47.450;19.124;2022-11-09T03:41:00;8.30;99.90
44215;DHT22;29884;47.450;19.124;2022-11-09T03:43:29;8.40;99.90
44215;DHT22;29884;47.450;19.124;2022-11-09T03:45:55;8.30;99.90
44215;DHT22;29884;47.450;19.124;2022-11-09T03:48:21;8.30;99.90
44215;DHT22;29884;47.450;19.124;2022-11-09T03:50:47;8.30;99.90
44215;DHT22;29884;47.450;19.124;2022-11-09T03:53:12;8.40;99.90
44215;DHT22;29884;47.450;19.124;2022-11-09T03:55:39;8.40;99.90
44215;DHT22;29884;47.450;19.124;2022-11-09T03:58:05;8.30;99.90
44215;DHT22;29884;47.450;19.124;2022-11-09T04:00:32;8.30;99.90
44215;DHT22;29884;47.450;19.124;2022-11-09T04:02:58;8.40;99.90
44215;DHT22;29884;47.450;19.124;2022-11-09T04:05:24;8.30;99.90
44215;DHT22;29884;47.450;19.124;2022-11-09T04:07:52;8.30;99.90
44215;DHT22;29884;47.450;19.124;2022-11-09T04:10:18;8.30;99.90
44215;DHT22;29884;47.450;19.124;2022-11-09T04:12:45;8.30;99.90
44215;DHT22;29884;47.450;19.124;2022-11-09T04:15:11;8.30;99.90
44215;DHT22;29884;47.450;19.124;2022-11-09T04:17:37;8.40;99.90
44215;DHT22;29884;47.450;19.124;2022-11-09T04:20:04;8.30;99.90
44215;DHT22;29884;47.450;19.124;2022-11-09T04:22:30;8.40;99.90
44215;DHT22;29884;47.450;19.124;2022-11-09T04:24:55;8.30;99.90
44215;DHT22;29884;47.450;19.124;2022-11-09T04:27:21;8.30;99.90
44215;DHT22;29884;47.450;19.124;2022-11-09T04:29:47;8.30;99.90
44215;DHT22;29884;47.450;19.124;2022-11-09T04:32:12;8.30;99.90
44215;DHT22;29884;47.450;19.124;2022-11-09T04:34:38;8.30;99.90
44215;DHT22;29884;47.450;19.124;2022-11-09T04:37:06;8.30;99.90
44215;DHT22;29884;47.450;19.124;2022-11-09T04:39:31;8.30;99.90
44215;DHT22;29884;47.450;19.124;2022-11-09T04:41:57;8.30;99.90
44215;DHT22;29884;47.450;19.124;2022-11-09T04:44:23;8.30;99.90
44215;DHT22;29884;47.450;19.124;2022-11-09T04:46:49;8.30;99.90
44215;DHT22;29884;47.450;19.124;2022-11-09T04:49:14;8.30;99.90
44215;DHT22;29884;47.450;19.124;2022-11-09T04:51:40;8.20;99.90
44215;DHT22;29884;47.450;19.124;2022-11-09T04:54:06;8.30;99.90
44215;DHT22;29884;47.450;19.124;2022-11-09T04:56:31;8.30;99.90
44215;DHT22;29884;47.450;19.124;2022-11-09T04:58:57;8.30;99.90
44215;DHT22;29884;47.450;19.124;2022-11-09T05:01:23;8.30;99.90
44215;DHT22;29884;47.450;19.124;2022-11-09T05:03:49;8.30;99.90
44215;DHT22;29884;47.450;19.124;2022-11-09T05:06:14;8.30;99.90
44215;DHT22;29884;47.450;19.124;2022-11-09T05:09:04;8.30;99.90
44215;DHT22;29884;47.450;19.124;2022-11-09T05:11:31;8.30;99.90
44215;DHT22;29884;47.450;19.124;2022-11-09T05:13:57;8.40;99.90
44215;DHT22;29884;47.450;19.124;2022-11-09T05:16:23;8.40;99.90
44215;DHT22;29884;47.450;19.124;2022-11-09T05:18:49;8.30;99.90
44215;DHT22;29884;47.450;19.124;2022-11-09T05:21:16;8.30;99.90
44215;DHT22;29884;47.450;19.124;2022-11-09T05:23:42;8.30;99.90
44215;DHT22;29884;47.450;19.124;2022-11-09T05:26:35;8.30;99.90
44215;DHT22;29884;47.450;19.124;2022-11-09T05:29:04;8.30;99.90
44215;DHT22;29884;47.450;19.124;2022-11-09T05:31:31;8.30;99.90
44215;DHT22;29884;47.450;19.124;2022-11-09T05:33:57;8.30;99.90
44215;DHT22;29884;47.450;19.124;2022-11-09T05:36:24;8.30;99.90
44215;DHT22;29884;47.450;19.124;2022-11-09T05:38:50;8.20;99.90
44215;DHT22;29884;47.450;19.124;2022-11-09T05:41:16;8.30;99.90
44215;DHT22;29884;47.450;19.124;2022-11-09T05:43:42;8.30;99.90
44215;DHT22;29884;47.450;19.124;2022-11-09T05:46:09;8.30;99.90
44215;DHT22;29884;47.450;19.124;2022-11-09T05:48:35;8.30;99.90
44215;DHT22;29884;47.450;19.124;2022-11-09T05:51:02;8.20;99.90
44215;DHT22;29884;47.450;19.124;2022-11-09T05:53:29;8.20;99.90
44215;DHT22;29884;47.450;19.124;2022-11-09T05:55:55;8.20;99.90
44215;DHT22;29884;47.450;19.124;2022-11-09T05:58:21;8.20;99.90
44215;DHT22;29884;47.450;19.124;2022-11-09T06:00:47;8.20;99.90
44215;DHT22;29884;47.450;19.124;2022-11-09T06:03:12;8.30;99.90
44215;DHT22;29884;47.450;19.124;2022-11-09T06:05:39;8.30;99.90
44215;DHT22;29884;47.450;19.124;2022-11-09T06:08:15;8.30;99.90
44215;DHT22;29884;47.450;19.124;2022-11-09T06:10:41;8.20;99.90
44215;DHT22;29884;47.450;19.124;2022-11-09T06:13:07;8.20;99.90
44215;DHT22;29884;47.450;19.124;2022-11-09T06:15:33;8.20;99.90
44215;DHT22;29884;47.450;19.124;2022-11-09T06:17:59;8.20;99.90
44215;DHT22;29884;47.450;19.124;2022-11-09T06:20:26;8.20;99.90
44215;DHT22;29884;47.450;19.124;2022-11-09T06:22:56;8.20;99.90
44215;DHT22;29884;47.450;19.124;2022-11-09T06:25:23;8.10;99.90
44215;DHT22;29884;47.450;19.124;2022-11-09T06:27:49;8.00;99.90
44215;DHT22;29884;47.450;19.124;2022-11-09T06:30:15;8.00;99.90
44215;DHT22;29884;47.450;19.124;2022-11-09T06:32:41;8.00;99.90
44215;DHT22;29884;47.450;19.124;2022-11-09T06:35:07;7.90;99.90
44215;DHT22;29884;47.450;19.124;2022-11-09T06:37:33;8.00;99.90
44215;DHT22;29884;47.450;19.124;2022-11-09T06:39:59;8.10;99.90
44215;DHT22;29884;47.450;19.124;2022-11-09T06:42:25;8.00;99.90
44215;DHT22;29884;47.450;19.124;2022-11-09T06:44:50;8.00;99.90
44215;DHT22;29884;47.450;19.124;2022-11-09T06:47:16;8.00;99.90
44215;DHT22;29884;47.450;19.124;2022-11-09T06:49:42;8.00;99.90
44215;DHT22;29884;47.450;19.124;2022-11-09T06:52:07;8.00;99.90
44215;DHT22;29884;47.450;19.124;2022-11-09T06:54:33;8.00;99.90
44215;DHT22;29884;47.450;19.124;2022-11-09T06:56:59;8.00;99.90
44215;DHT22;29884;47.450;19.124;2022-11-09T06:59:26;8.10;99.90
44215;DHT22;29884;47.450;19.124;2022-11-09T07:01:51;8.00;99.90
44215;DHT22;29884;47.450;19.124;2022-11-09T07:04:17;7.90;99.90
44215;DHT22;29884;47.450;19.124;2022-11-09T07:06:43;8.00;99.90
44215;DHT22;29884;47.450;19.124;2022-11-09T07:09:09;8.00;99.90
44215;DHT22;29884;47.450;19.124;2022-11-09T07:11:35;8.00;99.90
44215;DHT22;29884;47.450;19.124;2022-11-09T07:14:01;8.00;99.90
44215;DHT22;29884;47.450;19.124;2022-11-09T07:16:28;8.10;99.90
44215;DHT22;29884;47.450;19.124;2022-11-09T07:18:54;8.10;99.90
44215;DHT22;29884;47.450;19.124;2022-11-09T07:21:19;8.10;99.90
44215;DHT22;29884;47.450;19.124;2022-11-09T07:23:46;8.10;99.90
44215;DHT22;29884;47.450;19.124;2022-11-09T07:26:13;8.10;99.90
44215;DHT22;29884;47.450;19.124;2022-11-09T07:28:38;8.10;99.90
44215;DHT22;29884;47.450;19.124;2022-11-09T07:31:04;8.20;99.90
44215;DHT22;29884;47.450;19.124;2022-11-09T07:33:30;8.20;99.90
44215;DHT22;29884;47.450;19.124;2022-11-09T07:35:58;8.20;99.90
44215;DHT22;29884;47.450;19.124;2022-11-09T07:38:25;8.20;99.90
44215;DHT22;29884;47.450;19.124;2022-11-09T07:40:51;8.30;99.90
44215;DHT22;29884;47.450;19.124;2022-11-09T07:43:16;8.30;99.90
44215;DHT22;29884;47.450;19.124;2022-11-09T07:45:42;8.30;99.90
44215;DHT22;29884;47.450;19.124;2022-11-09T07:48:09;8.30;99.90
44215;DHT22;29884;47.450;19.124;2022-11-09T07:50:37;8.40;99.90
44215;DHT22;29884;47.450;19.124;2022-11-09T07:53:03;8.50;99.90
44215;DHT22;29884;47.450;19.124;2022-11-09T07:55:31;8.50;99.90
44215;DHT22;29884;47.450;19.124;2022-11-09T07:58:13;8.60;99.90
44215;DHT22;29884;47.450;19.124;2022-11-09T08:00:40;8.70;99.90
44215;DHT22;29884;47.450;19.124;2022-11-09T08:03:06;8.70;99.90
44215;DHT22;29884;47.450;19.124;2022-11-09T08:05:32;8.70;99.90
44215;DHT22;29884;47.450;19.124;2022-11-09T08:08:01;8.80;99.90
44215;DHT22;29884;47.450;19.124;2022-11-09T08:10:29;8.80;99.90
44215;DHT22;29884;47.450;19.124;2022-11-09T08:12:59;8.90;99.90
44215;DHT22;29884;47.450;19.124;2022-11-09T08:15:26;8.90;99.90
44215;DHT22;29884;47.450;19.124;2022-11-09T08:17:52;8.90;99.90
44215;DHT22;29884;47.450;19.124;2022-11-09T08:20:18;9.00;99.90
44215;DHT22;29884;47.450;19.124;2022-11-09T08:22:45;9.00;99.90
44215;DHT22;29884;47.450;19.124;2022-11-09T08:25:11;9.00;99.90
44215;DHT22;29884;47.450;19.124;2022-11-09T08:27:38;9.10;99.90
44215;DHT22;29884;47.450;19.124;2022-11-09T08:30:14;9.10;99.90
44215;DHT22;29884;47.450;19.124;2022-11-09T08:32:41;9.10;99.90
44215;DHT22;29884;47.450;19.124;2022-11-09T08:35:08;9.10;99.90
44215;DHT22;29884;47.450;19.124;2022-11-09T08:37:35;9.10;99.90
44215;DHT22;29884;47.450;19.124;2022-11-09T08:40:02;9.10;99.90
44215;DHT22;29884;47.450;19.124;2022-11-09T08:42:27;9.20;99.90
44215;DHT22;29884;47.450;19.124;2022-11-09T08:44:53;9.20;99.90
44215;DHT22;29884;47.450;19.124;2022-11-09T08:47:19;9.20;99.90
44215;DHT22;29884;47.450;19.124;2022-11-09T08:49:44;9.30;99.90
44215;DHT22;29884;47.450;19.124;2022-11-09T08:52:11;9.30;99.90
44215;DHT22;29884;47.450;19.124;2022-11-09T08:54:37;9.30;99.90
44215;DHT22;29884;47.450;19.124;2022-11-09T08:57:03;9.30;99.90
44215;DHT22;29884;47.450;19.124;2022-11-09T08:59:29;9.30;99.90
44215;DHT22;29884;47.450;19.124;2022-11-09T09:01:55;9.30;99.90
44215;DHT22;29884;47.450;19.124;2022-11-09T09:04:21;9.40;99.90
44215;DHT22;29884;47.450;19.124;2022-11-09T09:06:46;9.40;99.90
44215;DHT22;29884;47.450;19.124;2022-11-09T09:09:12;9.50;99.90
44215;DHT22;29884;47.450;19.124;2022-11-09T09:11:38;9.50;99.90
44215;DHT22;29884;47.450;19.124;2022-11-09T09:14:03;9.60;99.90
44215;DHT22;29884;47.450;19.124;2022-11-09T09:16:29;9.60;99.90
44215;DHT22;29884;47.450;19.124;2022-11-09T09:18:55;9.60;99.90
44215;DHT22;29884;47.450;19.124;2022-11-09T09:21:21;9.60;99.90
44215;DHT22;29884;47.450;19.124;2022-11-09T09:23:47;9.60;99.90
44215;DHT22;29884;47.450;19.124;2022-11-09T09:26:14;9.60;99.90
44215;DHT22;29884;47.450;19.124;2022-11-09T09:28:40;9.70;99.90
44215;DHT22;29884;47.450;19.124;2022-11-09T09:31:06;9.70;99.90
44215;DHT22;29884;47.450;19.124;2022-11-09T09:33:31;9.70;99.90
44215;DHT22;29884;47.450;19.124;2022-11-09T09:35:58;9.70;99.90
44215;DHT22;29884;47.450;19.124;2022-11-09T09:38:25;9.70;99.90
44215;DHT22;29884;47.450;19.124;2022-11-09T09:40:57;9.80;99.90
44215;DHT22;29884;47.450;19.124;2022-11-09T09:43:45;9.90;99.90
44215;DHT22;29884;47.450;19.124;2022-11-09T09:46:18;9.80;99.90
44215;DHT22;29884;47.450;19.124;2022-11-09T09:48:52;9.90;99.90
44215;DHT22;29884;47.450;19.124;2022-11-09T09:51:31;9.90;99.90
44215;DHT22;29884;47.450;19.124;2022-11-09T09:54:24;9.90;99.90
44215;DHT22;29884;47.450;19.124;2022-11-09T09:56:52;9.90;99.90
44215;DHT22;29884;47.450;19.124;2022-11-09T09:59:40;9.90;99.90
44215;DHT22;29884;47.450;19.124;2022-11-09T10:04:41;10.00;99.90
44215;DHT22;29884;47.450;19.124;2022-11-09T10:07:36;10.00;99.90
44215;DHT22;29884;47.450;19.124;2022-11-09T10:18:02;10.00;99.90
44215;DHT22;29884;47.450;19.124;2022-11-09T10:23:45;10.10;99.90
44215;DHT22;29884;47.450;19.124;2022-11-09T10:26:26;10.10;99.90
44215;DHT22;29884;47.450;19.124;2022-11-09T10:29:05;10.10;99.90
44215;DHT22;29884;47.450;19.124;2022-11-09T10:31:40;10.10;99.90
44215;DHT22;29884;47.450;19.124;2022-11-09T10:34:31;10.20;99.90
44215;DHT22;29884;47.450;19.124;2022-11-09T10:40:14;10.20;99.90
44215;DHT22;29884;47.450;19.124;2022-11-09T10:42:37;10.30;99.90
44215;DHT22;29884;47.450;19.124;2022-11-09T10:45:35;10.30;99.90
44215;DHT22;29884;47.450;19.124;2022-11-09T10:48:03;10.30;99.90
44215;DHT22;29884;47.450;19.124;2022-11-09T10:50:49;10.30;99.90
44215;DHT22;29884;47.450;19.124;2022-11-09T10:53:24;10.30;99.90
44215;DHT22;29884;47.450;19.124;2022-11-09T10:58:40;10.40;99.90
44215;DHT22;29884;47.450;19.124;2022-11-09T11:01:15;10.40;99.90
44215;DHT22;29884;47.450;19.124;2022-11-09T11:03:42;10.30;99.90
44215;DHT22;29884;47.450;19.124;2022-11-09T11:08:42;10.20;99.90
44215;DHT22;29884;47.450;19.124;2022-11-09T11:11:19;10.20;99.90
44215;DHT22;29884;47.450;19.124;2022-11-09T11:13:45;10.20;99.90
44215;DHT22;29884;47.450;19.124;2022-11-09T11:16:24;10.30;99.90
44215;DHT22;29884;47.450;19.124;2022-11-09T11:18:50;10.20;99.90
44215;DHT22;29884;47.450;19.124;2022-11-09T11:21:19;10.20;99.90
44215;DHT22;29884;47.450;19.124;2022-11-09T11:26:39;10.10;99.90
44215;DHT22;29884;47.450;19.124;2022-11-09T11:29:43;10.20;99.90
44215;DHT22;29884;47.450;19.124;2022-11-09T11:32:14;10.20;99.90
44215;DHT22;29884;47.450;19.124;2022-11-09T11:34:40;10.20;99.90
44215;DHT22;29884;47.450;19.124;2022-11-09T11:39:58;10.10;99.90
44215;DHT22;29884;47.450;19.124;2022-11-09T11:45:34;10.10;99.90
44215;DHT22;29884;47.450;19.124;2022-11-09T11:50:51;10.10;99.90
44215;DHT22;29884;47.450;19.124;2022-11-09T11:56:38;10.20;99.90
44215;DHT22;29884;47.450;19.124;2022-11-09T11:59:17;10.10;99.90
44215;DHT22;29884;47.450;19.124;2022-11-09T12:15:26;10.10;99.90
44215;DHT22;29884;47.450;19.124;2022-11-09T12:18:09;10.10;99.90
44215;DHT22;29884;47.450;19.124;2022-11-09T12:20:39;10.10;99.90
44215;DHT22;29884;47.450;19.124;2022-11-09T12:34:26;10.00;99.90
44215;DHT22;29884;47.450;19.124;2022-11-09T12:37:02;10.10;99.90
44215;DHT22;29884;47.450;19.124;2022-11-09T12:39:52;10.00;99.90
44215;DHT22;29884;47.450;19.124;2022-11-09T12:42:47;10.10;99.90
44215;DHT22;29884;47.450;19.124;2022-11-09T12:47:47;10.10;99.90
44215;DHT22;29884;47.450;19.124;2022-11-09T12:50:16;10.10;99.90
44215;DHT22;29884;47.450;19.124;2022-11-09T12:52:44;10.10;99.90
44215;DHT22;29884;47.450;19.124;2022-11-09T12:55:20;10.10;99.90
44215;DHT22;29884;47.450;19.124;2022-11-09T12:57:47;10.20;99.90
44215;DHT22;29884;47.450;19.124;2022-11-09T13:03:26;10.20;99.90
44215;DHT22;29884;47.450;19.124;2022-11-09T13:06:12;10.20;99.90
44215;DHT22;29884;47.450;19.124;2022-11-09T13:08:38;10.20;99.90
44215;DHT22;29884;47.450;19.124;2022-11-09T13:13:44;10.20;99.90
44215;DHT22;29884;47.450;19.124;2022-11-09T13:16:30;10.20;99.90
44215;DHT22;29884;47.450;19.124;2022-11-09T13:18:57;10.10;99.90
44215;DHT22;29884;47.450;19.124;2022-11-09T13:23:50;10.10;99.90
44215;DHT22;29884;47.450;19.124;2022-11-09T13:39:58;10.10;99.90
44215;DHT22;29884;47.450;19.124;2022-11-09T13:42:32;10.20;99.90
44215;DHT22;29884;47.450;19.124;2022-11-09T13:45:25;10.20;99.90
44215;DHT22;29884;47.450;19.124;2022-11-09T13:47:52;10.10;99.90
44215;DHT22;29884;47.450;19.124;2022-11-09T13:50:24;10.10;99.90
44215;DHT22;29884;47.450;19.124;2022-11-09T13:52:53;10.10;99.90
44215;DHT22;29884;47.450;19.124;2022-11-09T13:58:01;10.10;99.90
44215;DHT22;29884;47.450;19.124;2022-11-09T14:00:28;10.10;99.90
44215;DHT22;29884;47.450;19.124;2022-11-09T14:02:59;10.10;99.90
44215;DHT22;29884;47.450;19.124;2022-11-09T14:05:33;10.10;99.90
44215;DHT22;29884;47.450;19.124;2022-11-09T14:08:02;10.20;99.90
44215;DHT22;29884;47.450;19.124;2022-11-09T14:16:10;10.10;99.90
44215;DHT22;29884;47.450;19.124;2022-11-09T14:29:54;10.10;99.90
44215;DHT22;29884;47.450;19.124;2022-11-09T14:34:48;10.10;99.90
44215;DHT22;29884;47.450;19.124;2022-11-09T14:37:14;10.10;99.90
44215;DHT22;29884;47.450;19.124;2022-11-09T14:39:41;10.00;99.90
44215;DHT22;29884;47.450;19.124;2022-11-09T14:42:20;10.00;99.90
44215;DHT22;29884;47.450;19.124;2022-11-09T14:44:47;10.10;99.90
44215;DHT22;29884;47.450;19.124;2022-11-09T14:47:18;10.00;99.90
44215;DHT22;29884;47.450;19.124;2022-11-09T14:49:46;10.00;99.90
44215;DHT22;29884;47.450;19.124;2022-11-09T14:52:16;10.00;99.90
44215;DHT22;29884;47.450;19.124;2022-11-09T14:54:43;10.00;99.90
44215;DHT22;29884;47.450;19.124;2022-11-09T14:57:14;10.00;99.90
44215;DHT22;29884;47.450;19.124;2022-11-09T14:59:43;10.00;99.90
44215;DHT22;29884;47.450;19.124;2022-11-09T15:02:12;10.00;99.90
44215;DHT22;29884;47.450;19.124;2022-11-09T15:04:58;10.00;99.90
44215;DHT22;29884;47.450;19.124;2022-11-09T15:07:32;10.00;99.90
44215;DHT22;29884;47.450;19.124;2022-11-09T15:10:03;10.10;99.90
44215;DHT22;29884;47.450;19.124;2022-11-09T15:12:31;10.00;99.90
44215;DHT22;29884;47.450;19.124;2022-11-09T15:15:02;10.00;99.90
44215;DHT22;29884;47.450;19.124;2022-11-09T15:17:35;10.00;99.90
44215;DHT22;29884;47.450;19.124;2022-11-09T15:20:23;10.00;99.90
44215;DHT22;29884;47.450;19.124;2022-11-09T15:23:03;10.10;99.90
44215;DHT22;29884;47.450;19.124;2022-11-09T15:25:33;10.00;99.90
44215;DHT22;29884;47.450;19.124;2022-11-09T15:39:01;10.00;99.90
44215;DHT22;29884;47.450;19.124;2022-11-09T15:41:37;10.10;99.90
44215;DHT22;29884;47.450;19.124;2022-11-09T15:44:04;10.00;99.90
44215;DHT22;29884;47.450;19.124;2022-11-09T15:46:50;10.00;99.90
44215;DHT22;29884;47.450;19.124;2022-11-09T15:49:17;10.00;99.90
44215;DHT22;29884;47.450;19.124;2022-11-09T15:51:45;10.00;99.90
44215;DHT22;29884;47.450;19.124;2022-11-09T15:54:14;10.00;99.90
44215;DHT22;29884;47.450;19.124;2022-11-09T15:56:40;10.10;99.90
44215;DHT22;29884;47.450;19.124;2022-11-09T15:59:11;10.00;99.90
44215;DHT22;29884;47.450;19.124;2022-11-09T16:01:39;10.10;99.90
44215;DHT22;29884;47.450;19.124;2022-11-09T16:04:05;10.00;99.90
44215;DHT22;29884;47.450;19.124;2022-11-09T16:06:31;10.10;99.90
44215;DHT22;29884;47.450;19.124;2022-11-09T16:08:57;10.10;99.90
44215;DHT22;29884;47.450;19.124;2022-11-09T16:11:23;10.20;99.90
44215;DHT22;29884;47.450;19.124;2022-11-09T16:13:48;10.20;99.90
44215;DHT22;29884;47.450;19.124;2022-11-09T16:16:17;10.10;99.90
44215;DHT22;29884;47.450;19.124;2022-11-09T16:18:43;10.10;99.90
44215;DHT22;29884;47.450;19.124;2022-11-09T16:21:10;10.10;99.90
44215;DHT22;29884;47.450;19.124;2022-11-09T16:23:36;10.20;99.90
44215;DHT22;29884;47.450;19.124;2022-11-09T16:26:10;10.20;99.90
44215;DHT22;29884;47.450;19.124;2022-11-09T16:28:36;10.10;99.90
44215;DHT22;29884;47.450;19.124;2022-11-09T16:31:04;10.10;99.90
44215;DHT22;29884;47.450;19.124;2022-11-09T16:33:31;10.10;99.90
44215;DHT22;29884;47.450;19.124;2022-11-09T16:35:59;10.10;99.90
44215;DHT22;29884;47.450;19.124;2022-11-09T16:38:28;10.10;99.90
44215;DHT22;29884;47.450;19.124;2022-11-09T16:40:54;10.10;99.90
44215;DHT22;29884;47.450;19.124;2022-11-09T16:43:20;10.10;99.90
44215;DHT22;29884;47.450;19.124;2022-11-09T16:45:48;10.20;99.90
44215;DHT22;29884;47.450;19.124;2022-11-09T16:48:15;10.20;99.90
44215;DHT22;29884;47.450;19.124;2022-11-09T16:50:42;10.10;99.90
44215;DHT22;29884;47.450;19.124;2022-11-09T16:53:08;10.20;99.90
44215;DHT22;29884;47.450;19.124;2022-11-09T16:55:34;10.20;99.90
44215;DHT22;29884;47.450;19.124;2022-11-09T16:58:00;10.10;99.90
44215;DHT22;29884;47.450;19.124;2022-11-09T17:00:26;10.20;99.90
44215;DHT22;29884;47.450;19.124;2022-11-09T17:02:52;10.20;99.90
44215;DHT22;29884;47.450;19.124;2022-11-09T17:05:18;10.20;99.90
44215;DHT22;29884;47.450;19.124;2022-11-09T17:07:46;10.20;99.90
44215;DHT22;29884;47.450;19.124;2022-11-09T17:10:12;10.30;99.90
44215;DHT22;29884;47.450;19.124;2022-11-09T17:12:38;10.20;99.90
44215;DHT22;29884;47.450;19.124;2022-11-09T17:15:04;10.30;99.90
44215;DHT22;29884;47.450;19.124;2022-11-09T17:17:30;10.30;99.90
44215;DHT22;29884;47.450;19.124;2022-11-09T17:19:56;10.30;99.90
44215;DHT22;29884;47.450;19.124;2022-11-09T17:22:22;10.30;99.90
44215;DHT22;29884;47.450;19.124;2022-11-09T17:24:48;10.30;99.90
44215;DHT22;29884;47.450;19.124;2022-11-09T17:27:13;10.30;99.90
44215;DHT22;29884;47.450;19.124;2022-11-09T17:29:39;10.30;99.90
44215;DHT22;29884;47.450;19.124;2022-11-09T17:32:07;10.30;99.90
44215;DHT22;29884;47.450;19.124;2022-11-09T17:34:33;10.30;99.90
44215;DHT22;29884;47.450;19.124;2022-11-09T17:36:59;10.30;99.90
44215;DHT22;29884;47.450;19.124;2022-11-09T17:39:25;10.30;99.90
44215;DHT22;29884;47.450;19.124;2022-11-09T17:41:51;10.30;99.90